Time;durP1;ratioP1;P1;durP2;ratioP2;P2;SDS_P1;SDS_P2;PMS_P1;PMS_P2;Temp;Humidity;BMP_temperature;BMP_pressure;BME280_temperature;BME280_humidity;BME280_pressure;Samples;Min_cycle;Max_cycle;Signal;HPM_P1;HPM_P2
2021/08/28 00:02:01;;;;;;;0.60;0.60;;;12.70;99.90;;;;;;5015145;28;20229;-77
2021/08/28 00:04:28;;;;;;;0.50;0.50;;;12.70;99.90;;;;;;5015060;28;20680;-78
2021/08/28 00:06:54;;;;;;;0.50;0.50;;;12.60;99.90;;;;;;5032811;28;20288;-78
2021/08/28 00:09:19;;;;;;;0.60;0.60;;;12.60;99.90;;;;;;5032739;28;20625;-79
2021/08/28 00:11:45;;;;;;;0.55;0.55;;;12.60;99.90;;;;;;5013961;28;20256;-79
2021/08/28 00:14:10;;;;;;;0.60;0.60;;;12.60;99.90;;;;;;5014972;28;20233;-78
2021/08/28 00:16:36;;;;;;;0.50;0.50;;;12.60;99.90;;;;;;5015059;28;20206;-79
2021/08/28 00:19:02;;;;;;;0.80;0.80;;;12.60;99.90;;;;;;5032505;28;21231;-78
2021/08/28 00:21:28;;;;;;;0.50;0.50;;;12.60;99.90;;;;;;5012540;28;20206;-78
2021/08/28 00:23:54;;;;;;;0.50;0.50;;;12.60;99.90;;;;;;5027378;28;20197;-78
2021/08/28 00:26:19;;;;;;;1.25;1.15;;;12.50;99.90;;;;;;5014993;28;20225;-79
2021/08/28 00:28:45;;;;;;;0.60;0.60;;;12.60;99.90;;;;;;5032730;28;20300;-78
2021/08/28 00:31:11;;;;;;;0.63;0.63;;;12.50;99.90;;;;;;5032507;28;20206;-79
2021/08/28 00:33:36;;;;;;;0.90;0.90;;;12.60;99.90;;;;;;5032637;28;20264;-78
2021/08/28 00:36:02;;;;;;;0.50;0.50;;;12.60;99.90;;;;;;5032632;28;20210;-78
2021/08/28 00:38:28;;;;;;;0.50;0.50;;;12.50;99.90;;;;;;5031975;28;20244;-78
2021/08/28 00:40:56;;;;;;;0.60;0.60;;;12.60;99.90;;;;;;5014627;28;20209;-78
2021/08/28 00:43:26;;;;;;;0.70;0.70;;;12.60;99.90;;;;;;5014962;28;20220;-78
2021/08/28 00:45:51;;;;;;;0.50;0.50;;;12.60;99.90;;;;;;5033775;28;20210;-78
2021/08/28 00:48:17;;;;;;;0.60;0.60;;;12.50;99.90;;;;;;5036353;28;20194;-78
2021/08/28 00:50:44;;;;;;;0.60;0.60;;;12.50;99.90;;;;;;5018630;28;20202;-79
2021/08/28 00:53:12;;;;;;;0.60;0.60;;;12.50;99.90;;;;;;5036243;28;20198;-79
2021/08/28 00:56:04;;;;;;;0.50;0.50;;;12.50;99.90;;;;;;5036294;28;20221;-78
2021/08/28 00:58:30;;;;;;;0.60;0.60;;;12.50;99.90;;;;;;5016266;28;20218;-79
2021/08/28 01:01:12;;;;;;;0.65;0.65;;;12.50;99.90;;;;;;5036956;23;20608;-70
2021/08/28 01:03:42;;;;;;;4.20;0.80;;;12.50;99.90;;;;;;5075855;28;20666;-70
2021/08/28 01:06:15;;;;;;;0.60;0.60;;;12.50;99.90;;;;;;5094223;28;20577;-70
2021/08/28 01:08:43;;;;;;;0.70;0.70;;;12.50;99.90;;;;;;5077113;28;20208;-70
2021/08/28 01:11:21;;;;;;;1.05;0.93;;;12.50;99.90;;;;;;5073847;28;20235;-71
2021/08/28 01:13:54;;;;;;;0.60;0.60;;;12.50;99.90;;;;;;5077165;28;20249;-70
2021/08/28 01:16:21;;;;;;;0.50;0.50;;;12.50;99.90;;;;;;5095345;28;20309;-71
2021/08/28 01:18:51;;;;;;;0.75;0.75;;;12.50;99.90;;;;;;5095501;28;20605;-70
2021/08/28 01:21:37;;;;;;;0.60;0.60;;;12.50;99.90;;;;;;5093939;28;20204;-70
2021/08/28 01:24:06;;;;;;;0.50;0.50;;;12.50;99.90;;;;;;5088193;28;20204;-70
2021/08/28 01:26:44;;;;;;;0.50;0.50;;;12.50;99.90;;;;;;5095005;28;20219;-70
2021/08/28 01:29:23;;;;;;;0.60;0.60;;;12.50;99.90;;;;;;5095416;28;20215;-70
2021/08/28 01:31:51;;;;;;;1.00;1.00;;;12.60;99.90;;;;;;5085907;28;20211;-70
2021/08/28 01:34:18;;;;;;;0.63;0.60;;;12.60;99.90;;;;;;5093681;28;20216;-71
2021/08/28 01:36:48;;;;;;;0.98;0.98;;;12.60;99.90;;;;;;5095057;28;20196;-71
2021/08/28 01:39:15;;;;;;;0.60;0.60;;;12.50;99.90;;;;;;5093672;28;20196;-70
2021/08/28 01:41:44;;;;;;;0.50;0.50;;;12.60;99.90;;;;;;5076591;28;20624;-70
2021/08/28 01:44:12;;;;;;;0.50;0.50;;;12.60;99.90;;;;;;5094661;28;20269;-71
2021/08/28 01:46:38;;;;;;;0.60;0.60;;;12.60;99.90;;;;;;5093215;28;20658;-70
2021/08/28 01:49:06;;;;;;;0.60;0.60;;;12.60;99.90;;;;;;5093442;28;20600;-70
2021/08/28 01:51:32;;;;;;;0.52;0.52;;;12.60;99.90;;;;;;5093218;28;20616;-70
2021/08/28 01:53:58;;;;;;;0.50;0.50;;;12.60;99.90;;;;;;5087729;28;20263;-70
2021/08/28 01:56:24;;;;;;;0.50;0.50;;;12.60;99.90;;;;;;5091304;28;20270;-70
2021/08/28 01:58:51;;;;;;;0.52;0.52;;;12.60;99.90;;;;;;5075168;28;20650;-70
2021/08/28 02:01:17;;;;;;;1.77;1.05;;;12.60;99.90;;;;;;5069430;28;20248;-70
2021/08/28 02:03:42;;;;;;;0.50;0.50;;;12.50;99.90;;;;;;5073146;28;20260;-70
2021/08/28 02:06:28;;;;;;;0.50;0.50;;;12.50;99.90;;;;;;5074147;28;20207;-70
2021/08/28 02:09:05;;;;;;;0.65;0.65;;;12.50;99.90;;;;;;5057467;28;20667;-70
2021/08/28 02:11:43;;;;;;;0.50;0.50;;;12.50;99.90;;;;;;5056521;28;20619;-71
2021/08/28 02:14:18;;;;;;;0.70;0.70;;;12.50;99.90;;;;;;5073968;28;20208;-71
2021/08/28 02:16:45;;;;;;;0.55;0.55;;;12.50;99.90;;;;;;5072468;28;20204;-70
2021/08/28 02:19:17;;;;;;;0.80;0.68;;;12.50;99.90;;;;;;5073944;28;20268;-70
2021/08/28 02:21:47;;;;;;;1.50;0.80;;;12.50;99.90;;;;;;5072142;28;20204;-71
2021/08/28 02:24:18;;;;;;;0.60;0.60;;;12.50;99.90;;;;;;5056705;28;20202;-71
2021/08/28 02:27:11;;;;;;;0.50;0.50;;;12.60;99.90;;;;;;5072908;28;20213;-70
2021/08/28 02:29:46;;;;;;;1.85;1.23;;;12.60;99.90;;;;;;5027286;28;20221;-71
2021/08/28 02:32:15;;;;;;;0.60;0.60;;;12.60;99.90;;;;;;5072494;28;20211;-71
2021/08/28 02:34:41;;;;;;;0.88;0.88;;;12.60;99.90;;;;;;5070882;28;20299;-70
2021/08/28 02:37:09;;;;;;;0.50;0.50;;;12.60;99.90;;;;;;5072459;28;20247;-71
2021/08/28 02:39:38;;;;;;;0.70;0.70;;;12.50;99.90;;;;;;5072209;28;20502;-70
2021/08/28 02:42:05;;;;;;;0.50;0.50;;;12.60;99.90;;;;;;5068315;28;20278;-71
2021/08/28 02:44:31;;;;;;;0.70;0.70;;;12.60;99.90;;;;;;5073545;28;20224;-71
2021/08/28 02:46:59;;;;;;;0.60;0.60;;;12.60;99.90;;;;;;5073667;28;20208;-71
2021/08/28 02:49:26;;;;;;;0.52;0.52;;;12.60;99.90;;;;;;5069282;28;20671;-71
2021/08/28 02:51:52;;;;;;;0.52;0.52;;;12.60;99.90;;;;;;5073100;28;20197;-72
2021/08/28 02:54:19;;;;;;;0.63;0.63;;;12.60;99.90;;;;;;5073205;28;20670;-71
2021/08/28 02:56:48;;;;;;;0.50;0.50;;;12.60;99.90;;;;;;5073199;28;20207;-71
2021/08/28 02:59:17;;;;;;;0.50;0.50;;;12.60;99.90;;;;;;5069490;28;20208;-70
2021/08/28 03:01:43;;;;;;;0.55;0.55;;;12.60;99.90;;;;;;5081233;28;20223;-71
2021/08/28 03:04:09;;;;;;;0.60;0.60;;;12.60;99.90;;;;;;5093668;28;20264;-71
2021/08/28 03:06:35;;;;;;;0.50;0.50;;;12.60;99.90;;;;;;5092428;28;20230;-71
2021/08/28 03:09:01;;;;;;;0.50;0.50;;;12.50;99.90;;;;;;5073997;28;20200;-71
2021/08/28 03:11:27;;;;;;;0.70;0.70;;;12.50;99.90;;;;;;5092360;28;20208;-70
2021/08/28 03:13:53;;;;;;;0.70;0.70;;;12.50;99.90;;;;;;5093663;28;20285;-71
2021/08/28 03:16:25;;;;;;;0.50;0.50;;;12.50;99.90;;;;;;5075600;28;20697;-71
2021/08/28 03:18:56;;;;;;;0.50;0.50;;;12.40;99.90;;;;;;5093638;28;20253;-71
2021/08/28 03:21:23;;;;;;;0.85;0.52;;;12.40;99.90;;;;;;5093309;28;20200;-71
2021/08/28 03:23:50;;;;;;;0.50;0.50;;;12.40;99.90;;;;;;5079267;28;20573;-71
2021/08/28 03:26:19;;;;;;;0.50;0.50;;;12.40;99.90;;;;;;5093384;28;20204;-72
2021/08/28 03:28:46;;;;;;;0.50;0.50;;;12.40;99.90;;;;;;5074370;28;20199;-70
2021/08/28 03:31:13;;;;;;;0.65;0.65;;;12.40;99.90;;;;;;5093544;28;20188;-70
2021/08/28 03:33:39;;;;;;;0.70;0.70;;;12.40;99.90;;;;;;5091746;28;20299;-72
2021/08/28 03:36:06;;;;;;;0.55;0.55;;;12.30;99.90;;;;;;5093245;28;20267;-71
2021/08/28 03:38:34;;;;;;;0.50;0.50;;;12.40;99.90;;;;;;5074653;28;20203;-71
2021/08/28 03:41:00;;;;;;;0.50;0.50;;;12.40;99.90;;;;;;5074383;28;20200;-71
2021/08/28 03:43:26;;;;;;;0.40;0.40;;;12.30;99.90;;;;;;5074343;28;20294;-71
2021/08/28 03:45:52;;;;;;;0.60;0.60;;;12.30;99.90;;;;;;5073372;28;20338;-71
2021/08/28 03:48:21;;;;;;;0.60;0.60;;;12.30;99.90;;;;;;5091724;28;20234;-70
2021/08/28 03:50:48;;;;;;;0.52;0.52;;;12.30;99.90;;;;;;5091505;28;20204;-70
2021/08/28 03:53:14;;;;;;;0.50;0.50;;;12.30;99.90;;;;;;5091689;28;20697;-70
2021/08/28 03:55:39;;;;;;;0.75;0.75;;;12.30;99.90;;;;;;5091441;28;20216;-71
2021/08/28 03:58:05;;;;;;;0.90;0.85;;;12.30;99.90;;;;;;5074638;28;20620;-71
2021/08/28 04:00:31;;;;;;;0.50;0.50;;;12.30;99.90;;;;;;5092256;28;20204;-72
2021/08/28 04:02:56;;;;;;;0.52;0.52;;;12.20;99.90;;;;;;5073190;28;20345;-71
2021/08/28 04:05:22;;;;;;;0.60;0.60;;;12.20;99.90;;;;;;5074500;28;20256;-71
2021/08/28 04:07:48;;;;;;;0.50;0.50;;;12.30;99.90;;;;;;5073352;28;20200;-70
2021/08/28 04:10:15;;;;;;;0.60;0.60;;;12.20;99.90;;;;;;5091511;28;20615;-70
2021/08/28 04:12:40;;;;;;;0.50;0.50;;;12.20;99.90;;;;;;5092537;28;20215;-71
2021/08/28 04:15:07;;;;;;;0.50;0.50;;;12.20;99.90;;;;;;5074773;28;20286;-71
2021/08/28 04:17:33;;;;;;;0.57;0.57;;;12.20;99.90;;;;;;5091061;28;20199;-71
2021/08/28 04:19:58;;;;;;;0.60;0.60;;;12.20;99.90;;;;;;5091055;28;20571;-71
2021/08/28 04:22:24;;;;;;;0.70;0.70;;;12.20;99.90;;;;;;5090586;28;20200;-71
2021/08/28 04:24:50;;;;;;;0.57;0.57;;;12.20;99.90;;;;;;5073251;28;20250;-71
2021/08/28 04:27:16;;;;;;;0.95;0.63;;;12.10;99.90;;;;;;5091178;28;20216;-72
2021/08/28 04:29:41;;;;;;;0.50;0.50;;;12.20;99.90;;;;;;5092420;28;20203;-72
2021/08/28 04:32:07;;;;;;;0.52;0.52;;;12.20;99.90;;;;;;5092478;28;20688;-72
2021/08/28 04:34:33;;;;;;;0.50;0.50;;;12.10;99.90;;;;;;5074149;28;20677;-74
2021/08/28 04:36:58;;;;;;;0.60;0.60;;;12.10;99.90;;;;;;5074394;28;20208;-71
2021/08/28 04:39:24;;;;;;;0.50;0.50;;;12.10;99.90;;;;;;5073880;28;20208;-70
2021/08/28 04:41:49;;;;;;;0.55;0.55;;;12.10;99.90;;;;;;5091666;28;20244;-70
2021/08/28 04:44:15;;;;;;;0.60;0.60;;;12.10;99.90;;;;;;5090827;28;20204;-70
2021/08/28 04:46:41;;;;;;;0.52;0.52;;;12.10;99.90;;;;;;5091903;28;20208;-71
2021/08/28 04:49:06;;;;;;;0.50;0.50;;;12.20;99.90;;;;;;5091151;28;20207;-71
2021/08/28 04:51:32;;;;;;;0.45;0.45;;;12.30;99.90;;;;;;5092412;28;20207;-70
2021/08/28 04:53:58;;;;;;;0.52;0.52;;;12.30;99.90;;;;;;5074065;28;20287;-70
2021/08/28 04:56:23;;;;;;;0.50;0.50;;;12.20;99.90;;;;;;5092147;28;20281;-69
2021/08/28 04:58:49;;;;;;;0.50;0.50;;;12.30;99.90;;;;;;5091024;28;20256;-71
2021/08/28 05:01:15;;;;;;;0.68;0.68;;;12.30;99.90;;;;;;5090503;28;20200;-70
2021/08/28 05:03:40;;;;;;;0.50;0.50;;;12.30;99.90;;;;;;5092158;28;20306;-69
2021/08/28 05:06:06;;;;;;;0.50;0.50;;;12.30;99.90;;;;;;5073790;28;20222;-71
2021/08/28 05:08:32;;;;;;;1.50;1.02;;;12.40;99.90;;;;;;5091688;28;20204;-71
2021/08/28 05:11:00;;;;;;;0.50;0.50;;;12.40;99.90;;;;;;5073798;28;20283;-70
2021/08/28 05:13:26;;;;;;;0.57;0.57;;;12.40;99.90;;;;;;5090270;28;20279;-70
2021/08/28 05:15:52;;;;;;;0.50;0.50;;;12.40;99.90;;;;;;5090753;28;20284;-71
2021/08/28 05:18:18;;;;;;;0.65;0.65;;;12.40;99.90;;;;;;5092225;28;20266;-71
2021/08/28 05:20:43;;;;;;;1.10;1.08;;;12.50;99.90;;;;;;5091402;28;20204;-72
2021/08/28 05:23:09;;;;;;;0.77;0.77;;;12.50;99.90;;;;;;5073739;28;20600;-72
2021/08/28 05:25:35;;;;;;;0.50;0.50;;;12.60;99.90;;;;;;5090288;28;20212;-72
2021/08/28 05:28:00;;;;;;;0.50;0.50;;;12.60;99.90;;;;;;5070322;28;20197;-73
2021/08/28 05:30:26;;;;;;;0.50;0.50;;;12.70;99.90;;;;;;5088910;28;20228;-71
2021/08/28 05:32:52;;;;;;;0.60;0.60;;;12.70;99.90;;;;;;5094564;28;20277;-71
2021/08/28 05:35:18;;;;;;;0.60;0.60;;;12.80;99.90;;;;;;5077053;28;20253;-72
2021/08/28 05:37:43;;;;;;;0.50;0.50;;;12.90;99.90;;;;;;5095184;28;20219;-70
2021/08/28 05:40:11;;;;;;;0.60;0.60;;;12.90;99.90;;;;;;5094235;28;20565;-71
2021/08/28 05:42:37;;;;;;;0.50;0.50;;;13.00;99.90;;;;;;5095562;28;20800;-71
2021/08/28 05:45:03;;;;;;;0.50;0.50;;;13.00;99.90;;;;;;5077118;28;20231;-70
2021/08/28 05:47:29;;;;;;;0.70;0.70;;;13.10;99.90;;;;;;5095266;28;20196;-70
2021/08/28 05:49:54;;;;;;;0.50;0.50;;;13.20;99.90;;;;;;5093998;28;20192;-71
2021/08/28 05:52:20;;;;;;;0.60;0.60;;;13.20;99.90;;;;;;5093824;28;20220;-71
2021/08/28 05:54:46;;;;;;;1.20;0.82;;;13.20;99.90;;;;;;5075781;28;20242;-71
2021/08/28 05:57:12;;;;;;;0.60;0.60;;;13.30;99.90;;;;;;5095389;28;20208;-71
2021/08/28 05:59:38;;;;;;;0.50;0.50;;;13.30;99.90;;;;;;5075511;28;20200;-71
2021/08/28 06:02:03;;;;;;;0.55;0.55;;;13.30;99.90;;;;;;5093572;28;20310;-71
2021/08/28 06:04:29;;;;;;;0.50;0.50;;;13.30;99.90;;;;;;5092087;28;20208;-71
2021/08/28 06:06:55;;;;;;;0.68;0.68;;;13.30;99.90;;;;;;5071361;28;20265;-71
2021/08/28 06:09:21;;;;;;;0.50;0.50;;;13.20;99.90;;;;;;5093834;28;20205;-71
2021/08/28 06:11:46;;;;;;;0.50;0.50;;;13.30;99.90;;;;;;5094790;28;20200;-70
2021/08/28 06:14:12;;;;;;;0.70;0.70;;;13.30;99.90;;;;;;5094782;28;20200;-71
2021/08/28 06:16:38;;;;;;;0.50;0.50;;;13.30;99.90;;;;;;5093433;28;20269;-71
2021/08/28 06:19:03;;;;;;;0.50;0.50;;;13.30;99.90;;;;;;5076887;28;20208;-71
2021/08/28 06:21:31;;;;;;;0.50;0.50;;;13.30;99.90;;;;;;5093078;28;20295;-71
2021/08/28 06:23:57;;;;;;;0.50;0.50;;;13.30;99.90;;;;;;5093492;28;20240;-72
2021/08/28 06:26:23;;;;;;;0.40;0.40;;;13.30;99.90;;;;;;5094538;28;20228;-71
2021/08/28 06:28:49;;;;;;;0.50;0.50;;;13.40;99.90;;;;;;5075068;28;20662;-71
2021/08/28 06:31:14;;;;;;;0.50;0.50;;;13.40;99.90;;;;;;5075346;28;20196;-69
2021/08/28 06:33:40;;;;;;;0.50;0.50;;;13.40;99.90;;;;;;5076086;28;20207;-70
2021/08/28 06:36:06;;;;;;;1.10;0.85;;;13.50;99.90;;;;;;5094790;28;20204;-70
2021/08/28 06:38:32;;;;;;;0.40;0.40;;;13.50;99.90;;;;;;5092893;28;20204;-71
2021/08/28 06:41:02;;;;;;;0.50;0.50;;;13.50;99.90;;;;;;5074813;28;20273;-70
2021/08/28 06:43:28;;;;;;;1.65;0.82;;;13.50;99.90;;;;;;5074318;28;20197;-70
2021/08/28 06:45:54;;;;;;;0.60;0.60;;;13.50;99.90;;;;;;5074657;28;20200;-70
2021/08/28 06:48:20;;;;;;;0.55;0.55;;;13.40;99.90;;;;;;5071487;28;20667;-71
2021/08/28 06:50:47;;;;;;;0.50;0.50;;;13.40;99.90;;;;;;5094453;28;20204;-70
2021/08/28 06:53:12;;;;;;;0.50;0.50;;;13.40;99.90;;;;;;5094569;28;20264;-71
2021/08/28 06:55:38;;;;;;;0.60;0.60;;;13.40;99.90;;;;;;5092644;28;20295;-70
2021/08/28 06:58:04;;;;;;;0.73;0.70;;;13.40;99.90;;;;;;5074580;28;20251;-71
2021/08/28 07:00:29;;;;;;;0.50;0.50;;;13.40;99.90;;;;;;5093461;28;20319;-70
2021/08/28 07:02:55;;;;;;;0.50;0.50;;;13.40;99.90;;;;;;5093461;28;20235;-71
2021/08/28 07:05:21;;;;;;;0.50;0.50;;;13.50;99.90;;;;;;5084174;28;20227;-71
2021/08/28 07:07:48;;;;;;;0.50;0.50;;;13.50;99.90;;;;;;5075695;28;20208;-71
2021/08/28 07:10:14;;;;;;;1.23;1.13;;;13.60;99.90;;;;;;5092669;28;20207;-70
2021/08/28 07:12:40;;;;;;;0.80;0.80;;;13.70;99.90;;;;;;5093633;28;20283;-72
2021/08/28 07:15:06;;;;;;;0.60;0.60;;;13.80;99.90;;;;;;5092194;28;20218;-72
2021/08/28 07:17:32;;;;;;;1.30;0.95;;;13.80;99.90;;;;;;5093612;28;20192;-70
2021/08/28 07:19:57;;;;;;;0.52;0.52;;;14.00;99.90;;;;;;5093799;28;20287;-71
2021/08/28 07:22:23;;;;;;;0.50;0.50;;;14.10;99.90;;;;;;5091897;28;20203;-71
2021/08/28 07:24:49;;;;;;;0.50;0.50;;;14.20;99.90;;;;;;5092474;28;20681;-71
2021/08/28 07:27:16;;;;;;;0.70;0.70;;;14.40;99.90;;;;;;5093545;28;20246;-71
2021/08/28 07:29:41;;;;;;;0.43;0.43;;;14.40;99.90;;;;;;5093259;28;20206;-72
2021/08/28 07:32:08;;;;;;;0.50;0.50;;;14.50;99.90;;;;;;5093600;28;20208;-71
2021/08/28 07:34:36;;;;;;;0.50;0.50;;;14.50;99.90;;;;;;5091868;28;20275;-71
2021/08/28 07:37:03;;;;;;;0.82;0.65;;;14.60;99.90;;;;;;5093448;28;20212;-71
2021/08/28 07:39:29;;;;;;;0.50;0.50;;;14.60;99.90;;;;;;5091854;28;20258;-72
2021/08/28 07:41:54;;;;;;;0.68;0.68;;;14.70;99.90;;;;;;5093429;28;20790;-71
2021/08/28 07:44:20;;;;;;;0.50;0.50;;;14.90;99.90;;;;;;5093148;28;20280;-71
2021/08/28 07:46:48;;;;;;;0.55;0.55;;;15.00;99.90;;;;;;5093430;28;20253;-70
2021/08/28 07:49:14;;;;;;;0.40;0.40;;;15.10;99.90;;;;;;5074978;28;20614;-71
2021/08/28 07:51:40;;;;;;;0.47;0.47;;;15.30;99.90;;;;;;5092149;28;20528;-70
2021/08/28 07:54:05;;;;;;;0.50;0.50;;;15.30;99.90;;;;;;5074746;28;20203;-70
2021/08/28 07:56:31;;;;;;;0.50;0.50;;;15.20;99.90;;;;;;5092158;28;20200;-70
2021/08/28 07:58:57;;;;;;;0.60;0.60;;;15.20;99.90;;;;;;5073413;28;20208;-70
2021/08/28 08:01:23;;;;;;;0.65;0.52;;;15.30;99.90;;;;;;5074074;28;20355;-69
2021/08/28 08:03:48;;;;;;;0.75;0.75;;;15.50;99.90;;;;;;5092839;28;20689;-69
2021/08/28 08:06:14;;;;;;;0.40;0.40;;;15.60;99.90;;;;;;5092839;28;20242;-71
2021/08/28 08:08:40;;;;;;;0.93;0.88;;;15.60;99.90;;;;;;5092761;28;20211;-70
2021/08/28 08:11:06;;;;;;;0.60;0.60;;;15.70;99.90;;;;;;5091425;28;20204;-70
2021/08/28 08:13:32;;;;;;;0.38;0.38;;;15.80;99.90;;;;;;5091104;28;20695;-70
2021/08/28 08:15:57;;;;;;;0.60;0.60;;;15.70;99.90;;;;;;5074519;28;20243;-70
2021/08/28 08:18:23;;;;;;;0.40;0.40;;;15.50;99.90;;;;;;5073995;28;20705;-70
2021/08/28 08:20:49;;;;;;;0.40;0.40;;;15.40;99.90;;;;;;5092553;28;20654;-70
2021/08/28 08:23:15;;;;;;;0.50;0.50;;;15.30;99.90;;;;;;5072959;28;20208;-70
2021/08/28 08:25:40;;;;;;;0.40;0.40;;;15.30;99.90;;;;;;5092179;28;20204;-70
2021/08/28 08:28:06;;;;;;;0.43;0.43;;;15.20;99.90;;;;;;5091222;28;20210;-69
2021/08/28 08:30:32;;;;;;;0.60;0.60;;;15.20;99.90;;;;;;5074206;28;20203;-69
2021/08/28 08:32:57;;;;;;;0.82;0.82;;;15.20;99.90;;;;;;5091296;28;20196;-70
2021/08/28 08:35:23;;;;;;;0.50;0.50;;;15.20;99.90;;;;;;5093062;28;20199;-70
2021/08/28 08:37:49;;;;;;;0.85;0.82;;;15.30;99.90;;;;;;5092700;28;20204;-70
2021/08/28 08:40:15;;;;;;;0.65;0.65;;;15.30;99.90;;;;;;5092409;28;20196;-69
2021/08/28 08:42:44;;;;;;;1.05;0.68;;;15.40;99.90;;;;;;5073080;28;20269;-69
2021/08/28 08:45:10;;;;;;;0.65;0.65;;;15.40;99.90;;;;;;5090755;28;20211;-70
2021/08/28 08:47:36;;;;;;;1.10;0.70;;;15.30;99.90;;;;;;5091045;28;20762;-70
2021/08/28 08:50:04;;;;;;;0.47;0.47;;;15.30;99.90;;;;;;5071244;28;20543;-70
2021/08/28 08:52:31;;;;;;;0.40;0.40;;;15.30;99.90;;;;;;5091224;28;20253;-69
2021/08/28 08:54:58;;;;;;;0.50;0.50;;;15.20;99.90;;;;;;5073323;28;20204;-70
2021/08/28 08:57:24;;;;;;;0.50;0.50;;;15.20;99.90;;;;;;5090846;28;20211;-69
2021/08/28 08:59:50;;;;;;;0.60;0.60;;;15.20;99.90;;;;;;5091003;28;20214;-70
2021/08/28 09:02:15;;;;;;;0.60;0.60;;;15.10;99.90;;;;;;5090573;28;20590;-69
2021/08/28 09:04:41;;;;;;;0.47;0.47;;;15.10;99.90;;;;;;5090725;28;20315;-69
2021/08/28 09:07:12;;;;;;;0.43;0.43;;;15.10;99.90;;;;;;5085096;28;20714;-69
2021/08/28 09:09:38;;;;;;;0.65;0.65;;;15.10;99.90;;;;;;5086434;28;20196;-69
2021/08/28 09:12:08;;;;;;;1.30;1.15;;;15.10;99.90;;;;;;5076415;28;20320;-70
2021/08/28 09:14:34;;;;;;;0.40;0.40;;;15.20;99.90;;;;;;5094816;28;20191;-70
2021/08/28 09:17:19;;;;;;;1.27;0.60;;;15.20;99.90;;;;;;5096008;28;20200;-70
2021/08/28 09:19:46;;;;;;;0.50;0.50;;;15.10;99.90;;;;;;5094530;28;20658;-70
2021/08/28 09:22:26;;;;;;;0.80;0.80;;;15.20;99.90;;;;;;5094620;28;20196;-69
2021/08/28 09:24:55;;;;;;;0.40;0.40;;;15.20;99.90;;;;;;5096051;28;20598;-70
2021/08/28 09:27:36;;;;;;;1.55;0.60;;;15.30;99.90;;;;;;5077349;28;20324;-70
2021/08/28 09:30:16;;;;;;;0.40;0.40;;;15.40;99.90;;;;;;5096416;28;20585;-70
2021/08/28 09:32:50;;;;;;;0.60;0.60;;;15.40;99.90;;;;;;5072663;28;20211;-70
2021/08/28 09:35:17;;;;;;;0.55;0.55;;;15.50;99.90;;;;;;5077591;28;20192;-69
2021/08/28 09:37:50;;;;;;;0.47;0.47;;;15.50;99.90;;;;;;5094120;28;20212;-69
2021/08/28 09:40:15;;;;;;;0.75;0.75;;;15.50;99.90;;;;;;5094287;28;20279;-70
2021/08/28 09:42:41;;;;;;;0.40;0.40;;;15.50;99.90;;;;;;5077427;28;20226;-69
2021/08/28 09:45:11;;;;;;;0.40;0.40;;;15.30;99.90;;;;;;5095550;28;20250;-70
2021/08/28 09:47:41;;;;;;;0.50;0.50;;;15.30;99.90;;;;;;5095858;28;20323;-70
2021/08/28 09:50:07;;;;;;;0.50;0.50;;;15.20;99.90;;;;;;5077461;28;20192;-69
2021/08/28 09:52:32;;;;;;;0.60;0.60;;;15.10;99.90;;;;;;5075480;28;20603;-70
2021/08/28 09:54:58;;;;;;;0.40;0.40;;;15.10;99.90;;;;;;5095352;28;20239;-70
2021/08/28 09:57:28;;;;;;;0.40;0.40;;;15.10;99.90;;;;;;5093797;28;20227;-70
2021/08/28 09:59:58;;;;;;;0.45;0.45;;;15.20;99.90;;;;;;5093110;28;20204;-69
2021/08/28 10:02:24;;;;;;;2.83;0.65;;;15.10;99.90;;;;;;5093919;28;20216;-71
2021/08/28 10:04:56;;;;;;;0.50;0.50;;;15.20;99.90;;;;;;5095038;28;20303;-70
2021/08/28 10:07:27;;;;;;;1.00;0.68;;;15.20;99.90;;;;;;5094444;28;20212;-70
2021/08/28 10:10:02;;;;;;;0.50;0.50;;;15.20;99.90;;;;;;5094490;28;20208;-70
2021/08/28 10:12:33;;;;;;;0.50;0.50;;;15.20;99.90;;;;;;5076198;28;20688;-70
2021/08/28 10:14:59;;;;;;;0.55;0.55;;;15.30;99.90;;;;;;5076015;28;20642;-70
2021/08/28 10:17:28;;;;;;;0.65;0.65;;;15.40;99.90;;;;;;5075461;28;20203;-70
2021/08/28 10:19:57;;;;;;;0.50;0.50;;;15.40;99.90;;;;;;5093788;28;20243;-70
2021/08/28 10:22:27;;;;;;;0.45;0.45;;;15.40;99.90;;;;;;5067986;28;20197;-70
2021/08/28 10:24:57;;;;;;;0.65;0.65;;;15.30;99.90;;;;;;5091661;28;20211;-70
2021/08/28 10:27:24;;;;;;;0.50;0.50;;;15.20;99.90;;;;;;5094349;28;20223;-70
2021/08/28 10:29:50;;;;;;;0.47;0.47;;;15.20;99.90;;;;;;5094619;28;20564;-70
2021/08/28 10:32:17;;;;;;;0.85;0.68;;;15.20;99.90;;;;;;5093578;28;20200;-70
2021/08/28 10:34:43;;;;;;;0.82;0.82;;;15.30;99.90;;;;;;5075213;28;20207;-72
2021/08/28 10:37:09;;;;;;;0.60;0.60;;;15.40;99.90;;;;;;5093150;28;20568;-70
2021/08/28 10:39:36;;;;;;;1.80;0.50;;;15.40;99.90;;;;;;5085320;28;20274;-70
2021/08/28 10:42:06;;;;;;;0.50;0.50;;;15.50;99.90;;;;;;5094413;28;20302;-70
2021/08/28 10:44:31;;;;;;;1.02;0.80;;;15.40;99.90;;;;;;5094086;28;20686;-71
2021/08/28 10:46:57;;;;;;;1.15;0.98;;;15.40;99.90;;;;;;5092855;28;20207;-71
2021/08/28 10:49:24;;;;;;;0.45;0.45;;;15.40;99.90;;;;;;5093735;28;20199;-70
2021/08/28 10:51:56;;;;;;;0.50;0.50;;;15.30;99.90;;;;;;5092955;28;20203;-70
2021/08/28 10:54:30;;;;;;;0.40;0.40;;;15.30;99.90;;;;;;5093889;28;20265;-70
2021/08/28 10:57:01;;;;;;;0.80;0.80;;;15.30;99.90;;;;;;5092797;28;20603;-70
2021/08/28 10:59:29;;;;;;;0.40;0.40;;;15.30;99.90;;;;;;5092460;28;20195;-71
2021/08/28 11:02:13;;;;;;;1.23;1.08;;;15.40;99.90;;;;;;5070828;28;20252;-70
2021/08/28 11:04:44;;;;;;;0.50;0.50;;;15.30;99.90;;;;;;5072321;28;21331;-70
2021/08/28 11:07:23;;;;;;;0.93;0.93;;;15.40;99.90;;;;;;5066412;28;20267;-70
2021/08/28 11:10:28;;;;;;;0.50;0.50;;;15.50;99.90;;;;;;5062267;28;20196;-70
2021/08/28 11:13:01;;;;;;;1.48;0.80;;;15.60;99.90;;;;;;4995404;28;20261;-70
2021/08/28 11:15:32;;;;;;;0.50;0.50;;;15.80;99.90;;;;;;5011483;28;20257;-70
2021/08/28 11:18:06;;;;;;;1.00;0.68;;;15.90;99.90;;;;;;5010301;28;20225;-70
2021/08/28 11:20:35;;;;;;;0.40;0.40;;;15.90;99.90;;;;;;5011403;28;20203;-71
2021/08/28 11:23:03;;;;;;;0.52;0.52;;;15.90;99.90;;;;;;4994168;28;20604;-70
2021/08/28 11:25:31;;;;;;;0.40;0.40;;;16.00;99.90;;;;;;5012178;28;20207;-70
2021/08/28 11:27:59;;;;;;;1.10;0.80;;;16.10;99.90;;;;;;5010022;28;20210;-70
2021/08/28 11:30:46;;;;;;;0.55;0.55;;;16.00;99.90;;;;;;5009830;28;20217;-70
2021/08/28 11:33:20;;;;;;;0.40;0.40;;;15.90;99.90;;;;;;5010141;28;20203;-71
2021/08/28 11:35:48;;;;;;;0.50;0.50;;;15.90;99.90;;;;;;5011450;28;20210;-70
2021/08/28 11:38:13;;;;;;;0.50;0.50;;;16.00;99.90;;;;;;5011253;28;20222;-71
2021/08/28 11:40:41;;;;;;;0.63;0.63;;;16.00;99.90;;;;;;5009779;28;20257;-70
2021/08/28 11:43:11;;;;;;;0.40;0.40;;;16.00;99.90;;;;;;5028167;28;20217;-71
2021/08/28 11:45:39;;;;;;;0.57;0.57;;;16.10;99.90;;;;;;5074605;28;20774;-69
2021/08/28 11:48:10;;;;;;;0.70;0.70;;;16.10;99.90;;;;;;5072776;28;20192;-70
2021/08/28 11:50:37;;;;;;;0.40;0.40;;;16.10;99.90;;;;;;5072729;28;20650;-70
2021/08/28 11:53:04;;;;;;;0.52;0.52;;;16.10;99.90;;;;;;5073219;28;20231;-70
2021/08/28 11:55:34;;;;;;;0.40;0.40;;;16.00;99.90;;;;;;5072372;28;20224;-70
2021/08/28 11:58:09;;;;;;;2.33;0.82;;;15.90;99.90;;;;;;5070062;28;20292;-71
2021/08/28 12:00:36;;;;;;;2.05;0.50;;;15.90;99.90;;;;;;5056482;28;20205;-72
2021/08/28 12:03:06;;;;;;;0.35;0.35;;;15.90;99.90;;;;;;5089265;28;20220;-70
2021/08/28 12:05:32;;;;;;;0.40;0.40;;;15.90;99.90;;;;;;5073653;28;20725;-70
2021/08/28 12:07:58;;;;;;;0.50;0.50;;;16.00;99.90;;;;;;5093026;28;20598;-70
2021/08/28 12:10:25;;;;;;;0.52;0.52;;;16.00;99.90;;;;;;5091520;28;20222;-71
2021/08/28 12:13:01;;;;;;;0.40;0.40;;;15.90;99.90;;;;;;5092314;28;20260;-70
2021/08/28 12:15:28;;;;;;;0.40;0.40;;;15.80;99.90;;;;;;5073336;28;20227;-70
2021/08/28 12:17:55;;;;;;;0.40;0.40;;;15.60;99.90;;;;;;5092787;28;20283;-70
2021/08/28 12:20:26;;;;;;;0.50;0.50;;;15.60;99.90;;;;;;5091368;28;20229;-70
2021/08/28 12:22:54;;;;;;;0.60;0.60;;;15.50;99.90;;;;;;5090827;28;20224;-70
2021/08/28 12:25:20;;;;;;;0.50;0.50;;;15.60;99.90;;;;;;5074205;28;20236;-70
2021/08/28 12:27:48;;;;;;;0.60;0.60;;;15.60;99.90;;;;;;5092858;28;20203;-70
2021/08/28 12:30:14;;;;;;;0.50;0.50;;;15.70;99.90;;;;;;5092830;28;20200;-71
2021/08/28 12:32:39;;;;;;;0.40;0.40;;;15.80;99.90;;;;;;5092456;28;20257;-71
2021/08/28 12:35:06;;;;;;;0.70;0.70;;;16.00;99.90;;;;;;5073169;28;20216;-70
2021/08/28 12:37:32;;;;;;;0.40;0.40;;;16.10;99.90;;;;;;5092397;28;20208;-71
2021/08/28 12:40:01;;;;;;;0.40;0.40;;;16.20;99.90;;;;;;5091372;28;20227;-70
2021/08/28 12:42:31;;;;;;;0.50;0.50;;;16.30;99.90;;;;;;5070985;28;20258;-70
2021/08/28 12:44:59;;;;;;;0.40;0.40;;;16.40;99.90;;;;;;5092246;28;20245;-70
2021/08/28 12:47:32;;;;;;;0.63;0.57;;;16.50;99.90;;;;;;5073883;28;20568;-70
2021/08/28 12:49:58;;;;;;;1.00;0.68;;;16.60;99.90;;;;;;5091172;28;20204;-70
2021/08/28 12:52:45;;;;;;;0.50;0.50;;;16.80;99.90;;;;;;5074438;28;20261;-70